<?xml version="1.0" encoding="UTF-8" standalone="no" ?>
<gpx xmlns="http://www.topografix.com/GPX/1/1" xmlns:xsi="http://www.w3.org/2001/XMLSchema-instance" xsi:schemaLocation="http://www.topografix.com/GPX/1/1 http://www.topografix.com/GPX/1/1/gpx.xsd" version="1.1" creator="VisuGPX - https://www.visugpx.com">
  <metadata>
    <name>Turquie_100points</name>
  </metadata>
  <trk>
    <name><![CDATA[Tour d'Europe: étape 555]]></name>
    <extensions>
      <line xmlns="http://www.topografix.com/GPX/gpx_style/0/2">
        <color>00FFFF</color>
        <width>4</width>
      </line>
    </extensions>
    <trkseg>
      <trkpt lat="36.91965" lon="34.90008">
        <ele>55.302508</ele>
        <time>2022-01-04T07:52:00.299Z</time>
      </trkpt>
      <trkpt lat="36.9189" lon="34.89969">
        <ele>57.145645</ele>
        <time>2022-01-04T07:52:46.303Z</time>
      </trkpt>
      <trkpt lat="36.91901" lon="34.89777">
        <ele>65.862036</ele>
        <time>2022-01-04T07:54:11.290Z</time>
      </trkpt>
      <trkpt lat="36.91842" lon="34.89519">
        <ele>59.058614</ele>
        <time>2022-01-04T07:55:48.313Z</time>
      </trkpt>
      <trkpt lat="36.91724" lon="34.89329">
        <ele>61.065699</ele>
        <time>2022-01-04T07:57:40.288Z</time>
      </trkpt>
      <trkpt lat="36.918" lon="34.89102">
        <ele>60.62752</ele>
        <time>2022-01-04T08:02:50.284Z</time>
      </trkpt>
      <trkpt lat="36.91894" lon="34.88826">
        <ele>62.066396</ele>
        <time>2022-01-04T08:04:13.299Z</time>
      </trkpt>
      <trkpt lat="36.91807" lon="34.88616">
        <ele>68.624442</ele>
        <time>2022-01-04T08:05:51.292Z</time>
      </trkpt>
      <trkpt lat="36.91746" lon="34.88634">
        <ele>60.529783</ele>
        <time>2022-01-04T08:07:16.302Z</time>
      </trkpt>
      <trkpt lat="36.91806" lon="34.88489">
        <ele>65.005927</ele>
        <time>2022-01-04T08:09:21.310Z</time>
      </trkpt>
      <trkpt lat="36.91962" lon="34.8819">
        <ele>63.726074</ele>
        <time>2022-01-04T08:10:55.334Z</time>
      </trkpt>
      <trkpt lat="36.92032" lon="34.87929">
        <ele>72.803084</ele>
        <time>2022-01-04T08:11:57.289Z</time>
      </trkpt>
      <trkpt lat="36.92155" lon="34.87666">
        <ele>69.653598</ele>
        <time>2022-01-04T08:13:06.285Z</time>
      </trkpt>
      <trkpt lat="36.92079" lon="34.87404">
        <ele>55.797512</ele>
        <time>2022-01-04T08:14:24.312Z</time>
      </trkpt>
      <trkpt lat="36.91982" lon="34.87096">
        <ele>58.472367</ele>
        <time>2022-01-04T08:15:26.313Z</time>
      </trkpt>
      <trkpt lat="36.91889" lon="34.86789">
        <ele>60.485418</ele>
        <time>2022-01-04T08:17:53.307Z</time>
      </trkpt>
      <trkpt lat="36.91788" lon="34.86485">
        <ele>56.189287</ele>
        <time>2022-01-04T08:19:00.307Z</time>
      </trkpt>
      <trkpt lat="36.91626" lon="34.86234">
        <ele>54.566281</ele>
        <time>2022-01-04T08:20:05.298Z</time>
      </trkpt>
      <trkpt lat="36.91388" lon="34.86096">
        <ele>55.304569</ele>
        <time>2022-01-04T08:21:11.315Z</time>
      </trkpt>
      <trkpt lat="36.91188" lon="34.86001">
        <ele>54.850153</ele>
        <time>2022-01-04T08:22:24.325Z</time>
      </trkpt>
      <trkpt lat="36.9102" lon="34.85764">
        <ele>50.874563</ele>
        <time>2022-01-04T08:23:33.302Z</time>
      </trkpt>
      <trkpt lat="36.909" lon="34.85502">
        <ele>50.792951</ele>
        <time>2022-01-04T08:28:12.306Z</time>
      </trkpt>
      <trkpt lat="36.90778" lon="34.8524">
        <ele>48.890348</ele>
        <time>2022-01-04T08:35:24.336Z</time>
      </trkpt>
      <trkpt lat="36.90648" lon="34.84961">
        <ele>51.565499</ele>
        <time>2022-01-04T08:36:33.300Z</time>
      </trkpt>
      <trkpt lat="36.90452" lon="34.84777">
        <ele>52.678461</ele>
        <time>2022-01-04T08:37:39.309Z</time>
      </trkpt>
      <trkpt lat="36.90231" lon="34.84634">
        <ele>52.529349</ele>
        <time>2022-01-04T08:38:45.347Z</time>
      </trkpt>
      <trkpt lat="36.90037" lon="34.84442">
        <ele>52.755292</ele>
        <time>2022-01-04T08:39:50.313Z</time>
      </trkpt>
      <trkpt lat="36.89886" lon="34.84173">
        <ele>50.677031</ele>
        <time>2022-01-04T08:40:51.316Z</time>
      </trkpt>
      <trkpt lat="36.89827" lon="34.83884">
        <ele>49.972553</ele>
        <time>2022-01-04T08:42:00.304Z</time>
      </trkpt>
      <trkpt lat="36.89787" lon="34.83582">
        <ele>46.699079</ele>
        <time>2022-01-04T08:43:07.299Z</time>
      </trkpt>
      <trkpt lat="36.89543" lon="34.83658">
        <ele>50.178958</ele>
        <time>2022-01-04T08:44:05.303Z</time>
      </trkpt>
      <trkpt lat="36.89302" lon="34.83698">
        <ele>52.481494</ele>
        <time>2022-01-04T08:45:27.345Z</time>
      </trkpt>
      <trkpt lat="36.89041" lon="34.83777">
        <ele>44.084186</ele>
        <time>2022-01-04T08:46:28.302Z</time>
      </trkpt>
      <trkpt lat="36.88892" lon="34.83597">
        <ele>46.243234</ele>
        <time>2022-01-04T08:47:34.304Z</time>
      </trkpt>
      <trkpt lat="36.8877" lon="34.83302">
        <ele>46.385817</ele>
        <time>2022-01-04T08:48:43.297Z</time>
      </trkpt>
      <trkpt lat="36.88658" lon="34.83027">
        <ele>47.391278</ele>
        <time>2022-01-04T08:49:49.301Z</time>
      </trkpt>
      <trkpt lat="36.88547" lon="34.8276">
        <ele>52.137567</ele>
        <time>2022-01-04T08:50:55.307Z</time>
      </trkpt>
      <trkpt lat="36.88432" lon="34.82483">
        <ele>54.1004</ele>
        <time>2022-01-04T08:52:07.328Z</time>
      </trkpt>
      <trkpt lat="36.88316" lon="34.82205">
        <ele>54.196437</ele>
        <time>2022-01-04T08:53:13.310Z</time>
      </trkpt>
      <trkpt lat="36.88204" lon="34.81902">
        <ele>58.135289</ele>
        <time>2022-01-04T08:55:15.340Z</time>
      </trkpt>
      <trkpt lat="36.88077" lon="34.81663">
        <ele>50.767023</ele>
        <time>2022-01-04T08:56:05.302Z</time>
      </trkpt>
      <trkpt lat="36.8796" lon="34.81409">
        <ele>48.46887</ele>
        <time>2022-01-04T08:56:51.307Z</time>
      </trkpt>
      <trkpt lat="36.8785" lon="34.81171">
        <ele>48.302959</ele>
        <time>2022-01-04T08:57:35.304Z</time>
      </trkpt>
      <trkpt lat="36.87743" lon="34.80936">
        <ele>48.333366</ele>
        <time>2022-01-04T08:58:19.297Z</time>
      </trkpt>
      <trkpt lat="36.87627" lon="34.80686">
        <ele>48.231328</ele>
        <time>2022-01-04T08:59:05.306Z</time>
      </trkpt>
      <trkpt lat="36.8752" lon="34.80455">
        <ele>48.801013</ele>
        <time>2022-01-04T08:59:49.309Z</time>
      </trkpt>
      <trkpt lat="36.87413" lon="34.80225">
        <ele>48.960651</ele>
        <time>2022-01-04T09:00:33.304Z</time>
      </trkpt>
      <trkpt lat="36.87306" lon="34.7993">
        <ele>50.102231</ele>
        <time>2022-01-04T09:01:35.328Z</time>
      </trkpt>
      <trkpt lat="36.87202" lon="34.79622">
        <ele>52.361714</ele>
        <time>2022-01-04T09:02:41.305Z</time>
      </trkpt>
      <trkpt lat="36.87097" lon="34.79315">
        <ele>54.894296</ele>
        <time>2022-01-04T09:03:46.333Z</time>
      </trkpt>
      <trkpt lat="36.86913" lon="34.79322">
        <ele>54.492213</ele>
        <time>2022-01-04T09:04:45.312Z</time>
      </trkpt>
      <trkpt lat="36.8672" lon="34.79503">
        <ele>49.857975</ele>
        <time>2022-01-04T09:05:35.300Z</time>
      </trkpt>
      <trkpt lat="36.86682" lon="34.79227">
        <ele>46.512576</ele>
        <time>2022-01-04T09:06:46.316Z</time>
      </trkpt>
      <trkpt lat="36.86644" lon="34.78931">
        <ele>45.423765</ele>
        <time>2022-01-04T09:07:53.335Z</time>
      </trkpt>
      <trkpt lat="36.86577" lon="34.78642">
        <ele>45.554602</ele>
        <time>2022-01-04T09:09:02.323Z</time>
      </trkpt>
      <trkpt lat="36.86497" lon="34.78362">
        <ele>44.657835</ele>
        <time>2022-01-04T09:10:11.315Z</time>
      </trkpt>
      <trkpt lat="36.86242" lon="34.78381">
        <ele>41.344983</ele>
        <time>2022-01-04T09:11:19.310Z</time>
      </trkpt>
      <trkpt lat="36.85998" lon="34.78378">
        <ele>37.503783</ele>
        <time>2022-01-04T09:12:31.314Z</time>
      </trkpt>
      <trkpt lat="36.85758" lon="34.7833">
        <ele>35.382377</ele>
        <time>2022-01-04T09:13:44.322Z</time>
      </trkpt>
      <trkpt lat="36.85521" lon="34.78313">
        <ele>34.040755</ele>
        <time>2022-01-04T09:14:54.300Z</time>
      </trkpt>
      <trkpt lat="36.8527" lon="34.78288">
        <ele>31.509868</ele>
        <time>2022-01-04T09:16:00.306Z</time>
      </trkpt>
      <trkpt lat="36.85018" lon="34.78331">
        <ele>32.433829</ele>
        <time>2022-01-04T09:17:09.303Z</time>
      </trkpt>
      <trkpt lat="36.84806" lon="34.78218">
        <ele>30.312744</ele>
        <time>2022-01-04T09:18:15.301Z</time>
      </trkpt>
      <trkpt lat="36.84597" lon="34.78074">
        <ele>27.313938</ele>
        <time>2022-01-04T09:19:10.317Z</time>
      </trkpt>
      <trkpt lat="36.84404" lon="34.77871">
        <ele>26.947668</ele>
        <time>2022-01-04T09:20:18.311Z</time>
      </trkpt>
      <trkpt lat="36.84231" lon="34.77613">
        <ele>26.024324</ele>
        <time>2022-01-04T09:21:27.321Z</time>
      </trkpt>
      <trkpt lat="36.84105" lon="34.77359">
        <ele>27.445866</ele>
        <time>2022-01-04T09:22:33.339Z</time>
      </trkpt>
      <trkpt lat="36.83945" lon="34.77123">
        <ele>27.634528</ele>
        <time>2022-01-04T09:23:43.307Z</time>
      </trkpt>
      <trkpt lat="36.84073" lon="34.76886">
        <ele>27.789129</ele>
        <time>2022-01-04T09:24:54.308Z</time>
      </trkpt>
      <trkpt lat="36.84111" lon="34.76621">
        <ele>31.522453</ele>
        <time>2022-01-04T09:26:02.337Z</time>
      </trkpt>
      <trkpt lat="36.84109" lon="34.76336">
        <ele>33.232225</ele>
        <time>2022-01-04T09:27:16.308Z</time>
      </trkpt>
      <trkpt lat="36.84107" lon="34.76052">
        <ele>35.27601</ele>
        <time>2022-01-04T09:28:33.342Z</time>
      </trkpt>
      <trkpt lat="36.84116" lon="34.7575">
        <ele>34.816964</ele>
        <time>2022-01-04T09:29:49.305Z</time>
      </trkpt>
      <trkpt lat="36.84116" lon="34.7547">
        <ele>35.462104</ele>
        <time>2022-01-04T09:30:58.309Z</time>
      </trkpt>
      <trkpt lat="36.84115" lon="34.75192">
        <ele>36.607011</ele>
        <time>2022-01-04T09:32:11.324Z</time>
      </trkpt>
      <trkpt lat="36.84117" lon="34.74898">
        <ele>37.780003</ele>
        <time>2022-01-04T09:33:34.304Z</time>
      </trkpt>
      <trkpt lat="36.84127" lon="34.74616">
        <ele>38.914539</ele>
        <time>2022-01-04T09:34:47.343Z</time>
      </trkpt>
      <trkpt lat="36.84265" lon="34.74403">
        <ele>38.60295</ele>
        <time>2022-01-04T09:36:01.330Z</time>
      </trkpt>
      <trkpt lat="36.84318" lon="34.74105">
        <ele>41.936341</ele>
        <time>2022-01-04T09:37:19.295Z</time>
      </trkpt>
      <trkpt lat="36.84412" lon="34.73856">
        <ele>41.973713</ele>
        <time>2022-01-04T09:38:35.351Z</time>
      </trkpt>
      <trkpt lat="36.84613" lon="34.73722">
        <ele>41.514226</ele>
        <time>2022-01-04T09:39:50.301Z</time>
      </trkpt>
      <trkpt lat="36.84661" lon="34.73533">
        <ele>44.78261</ele>
        <time>2022-01-04T09:41:15.338Z</time>
      </trkpt>
      <trkpt lat="36.84554" lon="34.73272">
        <ele>49.993764</ele>
        <time>2022-01-04T09:42:31.348Z</time>
      </trkpt>
      <trkpt lat="36.84447" lon="34.73031">
        <ele>48.700445</ele>
        <time>2022-01-04T09:43:40.305Z</time>
      </trkpt>
      <trkpt lat="36.84618" lon="34.72854">
        <ele>55.778787</ele>
        <time>2022-01-04T09:44:50.299Z</time>
      </trkpt>
      <trkpt lat="36.84798" lon="34.72649">
        <ele>55.12179</ele>
        <time>2022-01-04T09:46:31.309Z</time>
      </trkpt>
      <trkpt lat="36.8493" lon="34.72503">
        <ele>57.605945</ele>
        <time>2022-01-04T09:47:43.311Z</time>
      </trkpt>
      <trkpt lat="36.85152" lon="34.72444">
        <ele>58.262258</ele>
        <time>2022-01-04T09:49:29.325Z</time>
      </trkpt>
      <trkpt lat="36.85074" lon="34.72415">
        <ele>51.595627</ele>
        <time>2022-01-04T09:50:33.304Z</time>
      </trkpt>
      <trkpt lat="36.84981" lon="34.72114">
        <ele>50.928468</ele>
        <time>2022-01-04T09:51:42.337Z</time>
      </trkpt>
      <trkpt lat="36.84892" lon="34.71798">
        <ele>51.068474</ele>
        <time>2022-01-04T09:52:46.316Z</time>
      </trkpt>
      <trkpt lat="36.84807" lon="34.71514">
        <ele>51.680614</ele>
        <time>2022-01-04T09:53:40.343Z</time>
      </trkpt>
      <trkpt lat="36.84732" lon="34.7121">
        <ele>53.17659</ele>
        <time>2022-01-04T09:54:52.302Z</time>
      </trkpt>
      <trkpt lat="36.84642" lon="34.70951">
        <ele>54.07691</ele>
        <time>2022-01-04T10:06:55.322Z</time>
      </trkpt>
      <trkpt lat="36.84556" lon="34.70675">
        <ele>57.12874</ele>
        <time>2022-01-04T10:08:24.299Z</time>
      </trkpt>
      <trkpt lat="36.84484" lon="34.70406">
        <ele>56.415967</ele>
        <time>2022-01-04T10:09:33.311Z</time>
      </trkpt>
      <trkpt lat="36.84382" lon="34.70114">
        <ele>46.20741</ele>
        <time>2022-01-04T10:10:54.330Z</time>
      </trkpt>
      <trkpt lat="36.8428" lon="34.69856">
        <ele>34.378488</ele>
        <time>2022-01-04T10:12:30.306Z</time>
      </trkpt>
      <trkpt lat="36.84166" lon="34.69571">
        <ele>33.760013</ele>
        <time>2022-01-04T10:13:36.316Z</time>
      </trkpt>
      <trkpt lat="36.84043" lon="34.69269">
        <ele>38.566184</ele>
        <time>2022-01-04T10:14:45.308Z</time>
      </trkpt>
      <trkpt lat="36.83894" lon="34.69003">
        <ele>36.755659</ele>
        <time>2022-01-04T10:15:51.316Z</time>
      </trkpt>
      <trkpt lat="36.83761" lon="34.6877">
        <ele>42.015279</ele>
        <time>2022-01-04T10:17:00.323Z</time>
      </trkpt>
      <trkpt lat="36.83629" lon="34.68527">
        <ele>48.989403</ele>
        <time>2022-01-04T10:18:16.311Z</time>
      </trkpt>
      <trkpt lat="36.83484" lon="34.68279">
        <ele>46.279096</ele>
        <time>2022-01-04T10:19:27.314Z</time>
      </trkpt>
      <trkpt lat="36.83351" lon="34.68036">
        <ele>48.259072</ele>
        <time>2022-01-04T10:20:34.303Z</time>
      </trkpt>
      <trkpt lat="36.83226" lon="34.67785">
        <ele>38.859088</ele>
        <time>2022-01-04T10:21:28.327Z</time>
      </trkpt>
      <trkpt lat="36.83153" lon="34.67472">
        <ele>44.180311</ele>
        <time>2022-01-04T10:22:44.303Z</time>
      </trkpt>
      <trkpt lat="36.83276" lon="34.67264">
        <ele>50.989252</ele>
        <time>2022-01-04T10:23:54.309Z</time>
      </trkpt>
      <trkpt lat="36.83138" lon="34.67093">
        <ele>53.179975</ele>
        <time>2022-01-04T10:24:43.314Z</time>
      </trkpt>
      <trkpt lat="36.82883" lon="34.67019">
        <ele>51.62166</ele>
        <time>2022-01-04T10:25:38.306Z</time>
      </trkpt>
      <trkpt lat="36.82638" lon="34.66978">
        <ele>44.275859</ele>
        <time>2022-01-04T10:26:36.331Z</time>
      </trkpt>
      <trkpt lat="36.82564" lon="34.66742">
        <ele>42.334075</ele>
        <time>2022-01-04T10:27:31.325Z</time>
      </trkpt>
      <trkpt lat="36.82487" lon="34.66466">
        <ele>45.424757</ele>
        <time>2022-01-04T10:28:27.327Z</time>
      </trkpt>
      <trkpt lat="36.82436" lon="34.66159">
        <ele>38.174092</ele>
        <time>2022-01-04T10:29:23.329Z</time>
      </trkpt>
      <trkpt lat="36.82308" lon="34.66041">
        <ele>37.342343</ele>
        <time>2022-01-04T10:30:17.315Z</time>
      </trkpt>
      <trkpt lat="36.82133" lon="34.66032">
        <ele>38.150086</ele>
        <time>2022-01-04T10:31:08.311Z</time>
      </trkpt>
      <trkpt lat="36.81995" lon="34.65801">
        <ele>41.270222</ele>
        <time>2022-01-04T10:31:55.329Z</time>
      </trkpt>
      <trkpt lat="36.81792" lon="34.65672">
        <ele>35.391493</ele>
        <time>2022-01-04T10:32:41.314Z</time>
      </trkpt>
      <trkpt lat="36.81629" lon="34.65421">
        <ele>31.959157</ele>
        <time>2022-01-04T10:33:26.309Z</time>
      </trkpt>
      <trkpt lat="36.81476" lon="34.65179">
        <ele>30.675015</ele>
        <time>2022-01-04T10:34:16.323Z</time>
      </trkpt>
      <trkpt lat="36.81329" lon="34.64939">
        <ele>33.916291</ele>
        <time>2022-01-04T10:35:09.310Z</time>
      </trkpt>
      <trkpt lat="36.81194" lon="34.64721">
        <ele>36.627521</ele>
        <time>2022-01-04T10:36:16.305Z</time>
      </trkpt>
      <trkpt lat="36.81077" lon="34.64489">
        <ele>36.218483</ele>
        <time>2022-01-04T10:37:01.313Z</time>
      </trkpt>
      <trkpt lat="36.81027" lon="34.64204">
        <ele>43.459356</ele>
        <time>2022-01-04T10:37:54.312Z</time>
      </trkpt>
      <trkpt lat="36.80882" lon="34.63997">
        <ele>41.988253</ele>
        <time>2022-01-04T10:38:40.304Z</time>
      </trkpt>
      <trkpt lat="36.80732" lon="34.6379">
        <ele>39.616835</ele>
        <time>2022-01-04T10:39:27.312Z</time>
      </trkpt>
      <trkpt lat="36.80594" lon="34.63558">
        <ele>38.919527</ele>
        <time>2022-01-04T10:40:16.315Z</time>
      </trkpt>
      <trkpt lat="36.80468" lon="34.63305">
        <ele>42.842331</ele>
        <time>2022-01-04T10:41:02.303Z</time>
      </trkpt>
      <trkpt lat="36.80334" lon="34.63044">
        <ele>54.056621</ele>
        <time>2022-01-04T10:42:55.307Z</time>
      </trkpt>
      <trkpt lat="36.80172" lon="34.62868">
        <ele>52.076434</ele>
        <time>2022-01-04T10:44:27.307Z</time>
      </trkpt>
      <trkpt lat="36.79957" lon="34.62872">
        <ele>59.972871</ele>
        <time>2022-01-04T10:45:51.311Z</time>
      </trkpt>
      <trkpt lat="36.79812" lon="34.62627">
        <ele>73.906555</ele>
        <time>2022-01-04T10:47:03.316Z</time>
      </trkpt>
      <trkpt lat="36.79638" lon="34.62401">
        <ele>63.670977</ele>
        <time>2022-01-04T10:48:07.300Z</time>
      </trkpt>
      <trkpt lat="36.7952" lon="34.62122">
        <ele>70.384885</ele>
        <time>2022-01-04T10:49:11.300Z</time>
      </trkpt>
      <trkpt lat="36.79441" lon="34.61805">
        <ele>65.309814</ele>
        <time>2022-01-04T10:51:09.323Z</time>
      </trkpt>
      <trkpt lat="36.79395" lon="34.61519">
        <ele>56.803084</ele>
        <time>2022-01-04T10:52:14.304Z</time>
      </trkpt>
      <trkpt lat="36.79368" lon="34.61224">
        <ele>51.964904</ele>
        <time>2022-01-04T10:54:24.310Z</time>
      </trkpt>
      <trkpt lat="36.79402" lon="34.60919">
        <ele>51.266356</ele>
        <time>2022-01-04T10:55:31.309Z</time>
      </trkpt>
      <trkpt lat="36.79274" lon="34.6067">
        <ele>53.635631</ele>
        <time>2022-01-04T10:56:49.317Z</time>
      </trkpt>
      <trkpt lat="36.79148" lon="34.60404">
        <ele>55.45391</ele>
        <time>2022-01-04T10:57:46.332Z</time>
      </trkpt>
      <trkpt lat="36.79033" lon="34.60148">
        <ele>55.63786</ele>
        <time>2022-01-04T10:58:54.316Z</time>
      </trkpt>
      <trkpt lat="36.78894" lon="34.59927">
        <ele>57.132179</ele>
        <time>2022-01-04T10:59:42.324Z</time>
      </trkpt>
      <trkpt lat="36.78756" lon="34.59674">
        <ele>57.551727</ele>
        <time>2022-01-04T11:00:41.305Z</time>
      </trkpt>
      <trkpt lat="36.78651" lon="34.59413">
        <ele>53.616107</ele>
        <time>2022-01-04T11:01:37.305Z</time>
      </trkpt>
      <trkpt lat="36.78552" lon="34.59136">
        <ele>52.956915</ele>
        <time>2022-01-04T11:02:30.312Z</time>
      </trkpt>
      <trkpt lat="36.78448" lon="34.58876">
        <ele>41.736521</ele>
        <time>2022-01-04T11:03:32.319Z</time>
      </trkpt>
      <trkpt lat="36.7828" lon="34.58684">
        <ele>44.280665</ele>
        <time>2022-01-04T11:04:35.307Z</time>
      </trkpt>
      <trkpt lat="36.78108" lon="34.58598">
        <ele>58.016352</ele>
        <time>2022-01-04T11:06:00.306Z</time>
      </trkpt>
      <trkpt lat="36.78022" lon="34.58312">
        <ele>54.119535</ele>
        <time>2022-01-04T11:07:06.311Z</time>
      </trkpt>
      <trkpt lat="36.7802" lon="34.58168">
        <ele>54.119535</ele>
        <time>2022-01-04T11:08:57.154Z</time>
      </trkpt>
    </trkseg>
  </trk>
</gpx>